Main page
Satellite images 15-day forecastsClimateMarine weather Cyclones Lightning AirportsFAQ Newsletter About
Weather : Europe Africa North America South America Asia Australia-Oceania Others
Languages Contact

Christchurch, New Zealand

latitude: 43-29S, longitude: 172-33E, elevation: 38 m


METAR: NZCH 251000Z AUTO 10009KT 9999 NCD 10/08 Q1012 NOSIG
TAF: NZCH 250502Z 2506/2606 06015G25KT CAVOK BECMG 2508/2510 32008KT FM260100 20015KT 9999 BKN020

Time: 23:10 (10:10 UTC)

Current weather observation

The report was made 10 minutes ago, at 10:00 UTC
Wind 9 kt from the East
Temperature 10°C
Humidity 87%
Pressure 1012 hPa
Visibility 10 km or more

Change units

Forecast

The report was made 5 hours and 8 minutes ago, at 05:02 UTC
Forecast valid from 25 at 06 UTC to 26 at 06 UTC
Wind 15 kt from the East/Northeast with gusts up to 25 kt
Visibility 10 km or more
no clouds below 1500 m and no cumulonimbus
Becoming
from 25 at 08 UTC to 25 at 10 UTC
Wind 8 kt from the Northwest
From 26 at 0100 UTC
Wind 15 kt from the South/Southwest
Visibility 10 km or more
Broken clouds at a height of 2000 ft
The information on this site is subject to a disclaimer
Weather : Europe Africa North America South America Asia Australia-Oceania Others
Satellite images 15-day forecastsClimateMarine weather Cyclones Lightning AirportsFAQ Languages Contact Newsletter About